sensor_id;sensor_type;location;lat;lon;timestamp;temperature;humidity
2929;DHT22;1474;51.460;7.150;2023-02-27T00:02:22;0.50;99.90
2929;DHT22;1474;51.460;7.150;2023-02-27T00:04:48;0.40;99.90
2929;DHT22;1474;51.460;7.150;2023-02-27T00:07:14;0.40;99.90
2929;DHT22;1474;51.460;7.150;2023-02-27T00:09:41;0.40;99.90
2929;DHT22;1474;51.460;7.150;2023-02-27T00:12:07;0.40;99.90
2929;DHT22;1474;51.460;7.150;2023-02-27T00:14:34;0.40;99.90
2929;DHT22;1474;51.460;7.150;2023-02-27T00:17:01;0.30;99.90
2929;DHT22;1474;51.460;7.150;2023-02-27T00:19:27;0.30;99.90
2929;DHT22;1474;51.460;7.150;2023-02-27T00:21:54;0.30;99.90
2929;DHT22;1474;51.460;7.150;2023-02-27T00:24:21;0.20;99.90
2929;DHT22;1474;51.460;7.150;2023-02-27T00:26:48;0.20;99.90
2929;DHT22;1474;51.460;7.150;2023-02-27T00:29:15;0.20;99.90
2929;DHT22;1474;51.460;7.150;2023-02-27T00:31:42;0.20;99.90
2929;DHT22;1474;51.460;7.150;2023-02-27T00:34:09;0.20;99.90
2929;DHT22;1474;51.460;7.150;2023-02-27T00:36:36;0.20;99.90
2929;DHT22;1474;51.460;7.150;2023-02-27T00:39:03;0.10;99.90
2929;DHT22;1474;51.460;7.150;2023-02-27T00:41:30;0.10;99.90
2929;DHT22;1474;51.460;7.150;2023-02-27T00:43:57;0.10;99.90
2929;DHT22;1474;51.460;7.150;2023-02-27T00:46:24;0.10;99.90
2929;DHT22;1474;51.460;7.150;2023-02-27T00:48:50;0.00;99.90
2929;DHT22;1474;51.460;7.150;2023-02-27T00:51:17;0.00;99.90
2929;DHT22;1474;51.460;7.150;2023-02-27T00:53:46;0.00;99.90
2929;DHT22;1474;51.460;7.150;2023-02-27T00:56:12;0.00;99.90
2929;DHT22;1474;51.460;7.150;2023-02-27T00:58:39;0.00;99.90
2929;DHT22;1474;51.460;7.150;2023-02-27T01:01:05;0.00;99.90
2929;DHT22;1474;51.460;7.150;2023-02-27T01:03:31;0.00;99.90
2929;DHT22;1474;51.460;7.150;2023-02-27T01:05:57;0.00;99.90
2929;DHT22;1474;51.460;7.150;2023-02-27T01:08:23;0.00;99.90
2929;DHT22;1474;51.460;7.150;2023-02-27T01:10:49;0.00;99.90
2929;DHT22;1474;51.460;7.150;2023-02-27T01:13:15;0.00;99.90
2929;DHT22;1474;51.460;7.150;2023-02-27T01:15:40;0.00;99.90
2929;DHT22;1474;51.460;7.150;2023-02-27T01:18:06;0.00;99.90
2929;DHT22;1474;51.460;7.150;2023-02-27T01:20:32;-0.10;99.90
2929;DHT22;1474;51.460;7.150;2023-02-27T01:22:59;-0.10;99.90
2929;DHT22;1474;51.460;7.150;2023-02-27T01:25:26;-0.20;99.90
2929;DHT22;1474;51.460;7.150;2023-02-27T01:27:53;-0.10;99.90
2929;DHT22;1474;51.460;7.150;2023-02-27T01:30:20;-0.20;99.90
2929;DHT22;1474;51.460;7.150;2023-02-27T01:32:48;-0.30;99.90
2929;DHT22;1474;51.460;7.150;2023-02-27T01:35:15;-0.30;99.90
2929;DHT22;1474;51.460;7.150;2023-02-27T01:37:41;-0.20;99.90
2929;DHT22;1474;51.460;7.150;2023-02-27T01:40:08;-0.20;99.90
2929;DHT22;1474;51.460;7.150;2023-02-27T01:42:34;-0.20;99.90
2929;DHT22;1474;51.460;7.150;2023-02-27T01:47:43;-0.20;99.90
2929;DHT22;1474;51.460;7.150;2023-02-27T01:50:11;-0.20;99.90
2929;DHT22;1474;51.460;7.150;2023-02-27T01:52:39;-0.30;99.90
2929;DHT22;1474;51.460;7.150;2023-02-27T01:55:06;-0.30;99.90
2929;DHT22;1474;51.460;7.150;2023-02-27T01:57:38;-0.30;99.90
2929;DHT22;1474;51.460;7.150;2023-02-27T02:00:05;-0.30;99.90
2929;DHT22;1474;51.460;7.150;2023-02-27T02:02:37;-0.30;99.90
2929;DHT22;1474;51.460;7.150;2023-02-27T02:05:03;-0.30;99.90
2929;DHT22;1474;51.460;7.150;2023-02-27T02:07:31;-0.30;99.90
2929;DHT22;1474;51.460;7.150;2023-02-27T02:09:59;-0.30;99.90
2929;DHT22;1474;51.460;7.150;2023-02-27T02:12:30;-0.30;99.90
2929;DHT22;1474;51.460;7.150;2023-02-27T02:14:58;-0.40;99.90
2929;DHT22;1474;51.460;7.150;2023-02-27T02:17:39;-0.40;99.90
2929;DHT22;1474;51.460;7.150;2023-02-27T02:23:04;-0.40;99.90
2929;DHT22;1474;51.460;7.150;2023-02-27T02:42:35;-0.60;99.90
2929;DHT22;1474;51.460;7.150;2023-02-27T02:47:48;-0.70;99.90
2929;DHT22;1474;51.460;7.150;2023-02-27T02:50:28;-0.70;99.90
2929;DHT22;1474;51.460;7.150;2023-02-27T02:55:56;-0.70;99.90
2929;DHT22;1474;51.460;7.150;2023-02-27T02:58:31;-0.80;99.90
2929;DHT22;1474;51.460;7.150;2023-02-27T03:01:06;-0.80;99.90
2929;DHT22;1474;51.460;7.150;2023-02-27T03:04:00;-0.80;99.90
2929;DHT22;1474;51.460;7.150;2023-02-27T03:06:28;-0.80;99.90
2929;DHT22;1474;51.460;7.150;2023-02-27T03:08:58;-0.80;99.90
2929;DHT22;1474;51.460;7.150;2023-02-27T03:11:28;-0.90;99.90
2929;DHT22;1474;51.460;7.150;2023-02-27T03:14:21;-0.90;99.90
2929;DHT22;1474;51.460;7.150;2023-02-27T03:16:50;-0.90;99.90
2929;DHT22;1474;51.460;7.150;2023-02-27T03:22:00;-1.00;99.90
2929;DHT22;1474;51.460;7.150;2023-02-27T03:24:54;-1.00;99.90
2929;DHT22;1474;51.460;7.150;2023-02-27T03:27:23;-1.00;99.90
2929;DHT22;1474;51.460;7.150;2023-02-27T03:29:55;-1.00;99.90
2929;DHT22;1474;51.460;7.150;2023-02-27T03:32:35;-1.00;99.90
2929;DHT22;1474;51.460;7.150;2023-02-27T03:35:04;-1.00;99.90
2929;DHT22;1474;51.460;7.150;2023-02-27T03:37:55;-1.00;99.90
2929;DHT22;1474;51.460;7.150;2023-02-27T03:45:47;-1.20;99.90
2929;DHT22;1474;51.460;7.150;2023-02-27T03:48:14;-1.20;99.90
2929;DHT22;1474;51.460;7.150;2023-02-27T03:50:39;-1.20;99.90
2929;DHT22;1474;51.460;7.150;2023-02-27T03:53:10;-1.20;99.90
2929;DHT22;1474;51.460;7.150;2023-02-27T03:55:40;-1.20;99.90
2929;DHT22;1474;51.460;7.150;2023-02-27T03:58:06;-1.30;99.90
2929;DHT22;1474;51.460;7.150;2023-02-27T04:00:32;-1.20;99.90
2929;DHT22;1474;51.460;7.150;2023-02-27T04:03:00;-1.20;99.90
2929;DHT22;1474;51.460;7.150;2023-02-27T04:05:26;-1.30;99.90
2929;DHT22;1474;51.460;7.150;2023-02-27T04:08:12;-1.20;99.90
2929;DHT22;1474;51.460;7.150;2023-02-27T04:11:18;-1.20;99.90
2929;DHT22;1474;51.460;7.150;2023-02-27T04:30:17;-1.40;99.90
2929;DHT22;1474;51.460;7.150;2023-02-27T04:32:54;-1.50;99.90
2929;DHT22;1474;51.460;7.150;2023-02-27T04:38:22;-1.50;99.90
2929;DHT22;1474;51.460;7.150;2023-02-27T04:40:55;-1.50;99.90
2929;DHT22;1474;51.460;7.150;2023-02-27T04:43:23;-1.50;99.90
2929;DHT22;1474;51.460;7.150;2023-02-27T04:45:52;-1.50;99.90
2929;DHT22;1474;51.460;7.150;2023-02-27T04:48:21;-1.60;99.90
2929;DHT22;1474;51.460;7.150;2023-02-27T04:51:00;-1.60;99.90
2929;DHT22;1474;51.460;7.150;2023-02-27T04:53:34;-1.60;99.90
2929;DHT22;1474;51.460;7.150;2023-02-27T04:56:07;-1.60;99.90
2929;DHT22;1474;51.460;7.150;2023-02-27T04:58:38;-1.60;99.90
2929;DHT22;1474;51.460;7.150;2023-02-27T05:01:13;-1.60;99.90
2929;DHT22;1474;51.460;7.150;2023-02-27T05:03:45;-1.70;99.90
2929;DHT22;1474;51.460;7.150;2023-02-27T05:06:14;-1.70;99.90
2929;DHT22;1474;51.460;7.150;2023-02-27T05:08:54;-1.70;99.90
2929;DHT22;1474;51.460;7.150;2023-02-27T05:11:42;-1.70;99.90
2929;DHT22;1474;51.460;7.150;2023-02-27T05:14:16;-1.70;99.90
2929;DHT22;1474;51.460;7.150;2023-02-27T05:17:07;-1.60;99.90
2929;DHT22;1474;51.460;7.150;2023-02-27T05:19:36;-1.70;99.90
2929;DHT22;1474;51.460;7.150;2023-02-27T05:24:58;-1.70;99.90
2929;DHT22;1474;51.460;7.150;2023-02-27T05:27:35;-1.80;99.90
2929;DHT22;1474;51.460;7.150;2023-02-27T05:30:24;-1.80;99.90
2929;DHT22;1474;51.460;7.150;2023-02-27T05:33:04;-1.80;99.90
2929;DHT22;1474;51.460;7.150;2023-02-27T05:38:14;-1.80;99.90
2929;DHT22;1474;51.460;7.150;2023-02-27T05:41:07;-1.80;99.90
2929;DHT22;1474;51.460;7.150;2023-02-27T05:44:00;-1.80;99.90
2929;DHT22;1474;51.460;7.150;2023-02-27T05:46:27;-1.80;99.90
2929;DHT22;1474;51.460;7.150;2023-02-27T05:48:59;-1.80;99.90
2929;DHT22;1474;51.460;7.150;2023-02-27T05:51:29;-1.80;99.90
2929;DHT22;1474;51.460;7.150;2023-02-27T05:54:09;-1.90;99.90
2929;DHT22;1474;51.460;7.150;2023-02-27T05:56:39;-1.90;99.90
2929;DHT22;1474;51.460;7.150;2023-02-27T05:59:13;-1.90;99.90
2929;DHT22;1474;51.460;7.150;2023-02-27T06:01:41;-1.90;99.90
2929;DHT22;1474;51.460;7.150;2023-02-27T06:04:07;-1.90;99.90
2929;DHT22;1474;51.460;7.150;2023-02-27T06:06:34;-2.00;99.90
2929;DHT22;1474;51.460;7.150;2023-02-27T06:09:00;-1.90;99.90
2929;DHT22;1474;51.460;7.150;2023-02-27T06:11:26;-1.90;99.90
2929;DHT22;1474;51.460;7.150;2023-02-27T06:13:52;-1.90;99.90
2929;DHT22;1474;51.460;7.150;2023-02-27T06:16:17;-1.90;99.90
2929;DHT22;1474;51.460;7.150;2023-02-27T06:18:43;-1.90;99.90
2929;DHT22;1474;51.460;7.150;2023-02-27T06:21:08;-1.90;99.90
2929;DHT22;1474;51.460;7.150;2023-02-27T06:23:34;-1.90;99.90
2929;DHT22;1474;51.460;7.150;2023-02-27T06:26:00;-1.90;99.90
2929;DHT22;1474;51.460;7.150;2023-02-27T06:28:29;-2.00;99.90
2929;DHT22;1474;51.460;7.150;2023-02-27T06:30:55;-2.00;99.90
2929;DHT22;1474;51.460;7.150;2023-02-27T06:33:22;-2.00;99.90
2929;DHT22;1474;51.460;7.150;2023-02-27T06:35:49;-2.00;99.90
2929;DHT22;1474;51.460;7.150;2023-02-27T06:38:15;-2.00;99.90
2929;DHT22;1474;51.460;7.150;2023-02-27T06:40:40;-2.00;99.90
2929;DHT22;1474;51.460;7.150;2023-02-27T06:43:06;-2.00;99.90
2929;DHT22;1474;51.460;7.150;2023-02-27T06:45:32;-2.00;99.90
2929;DHT22;1474;51.460;7.150;2023-02-27T06:47:58;-2.00;99.90
2929;DHT22;1474;51.460;7.150;2023-02-27T06:50:23;-2.00;99.90
2929;DHT22;1474;51.460;7.150;2023-02-27T06:52:49;-2.00;99.90
2929;DHT22;1474;51.460;7.150;2023-02-27T06:55:14;-2.10;99.90
2929;DHT22;1474;51.460;7.150;2023-02-27T06:57:47;-2.00;99.90
2929;DHT22;1474;51.460;7.150;2023-02-27T07:00:14;-2.00;99.90
2929;DHT22;1474;51.460;7.150;2023-02-27T07:02:40;-2.00;99.90
2929;DHT22;1474;51.460;7.150;2023-02-27T07:05:06;-2.00;99.90
2929;DHT22;1474;51.460;7.150;2023-02-27T07:07:33;-1.90;99.90
2929;DHT22;1474;51.460;7.150;2023-02-27T07:09:58;-1.90;99.90
2929;DHT22;1474;51.460;7.150;2023-02-27T07:12:24;-1.90;99.90
2929;DHT22;1474;51.460;7.150;2023-02-27T07:14:50;-1.80;99.90
2929;DHT22;1474;51.460;7.150;2023-02-27T07:17:15;-1.80;99.90
2929;DHT22;1474;51.460;7.150;2023-02-27T07:19:41;-1.70;99.90
2929;DHT22;1474;51.460;7.150;2023-02-27T07:22:07;-1.70;99.90
2929;DHT22;1474;51.460;7.150;2023-02-27T07:24:34;-1.60;99.90
2929;DHT22;1474;51.460;7.150;2023-02-27T07:27:00;-1.60;99.90
2929;DHT22;1474;51.460;7.150;2023-02-27T07:29:25;-1.50;99.90
2929;DHT22;1474;51.460;7.150;2023-02-27T07:31:51;-1.40;99.90
2929;DHT22;1474;51.460;7.150;2023-02-27T07:34:16;-1.30;99.90
2929;DHT22;1474;51.460;7.150;2023-02-27T07:36:42;-1.20;99.90
2929;DHT22;1474;51.460;7.150;2023-02-27T07:39:08;-1.10;99.90
2929;DHT22;1474;51.460;7.150;2023-02-27T07:41:35;-1.00;99.90
2929;DHT22;1474;51.460;7.150;2023-02-27T07:44:00;-1.00;99.90
2929;DHT22;1474;51.460;7.150;2023-02-27T07:46:26;-0.80;99.90
2929;DHT22;1474;51.460;7.150;2023-02-27T07:48:52;-0.70;99.90
2929;DHT22;1474;51.460;7.150;2023-02-27T07:51:18;-0.50;99.90
2929;DHT22;1474;51.460;7.150;2023-02-27T07:53:44;-0.40;99.90
2929;DHT22;1474;51.460;7.150;2023-02-27T07:56:09;-0.30;99.90
2929;DHT22;1474;51.460;7.150;2023-02-27T08:01:01;0.00;99.90
2929;DHT22;1474;51.460;7.150;2023-02-27T08:03:26;0.10;99.90
2929;DHT22;1474;51.460;7.150;2023-02-27T08:05:52;0.30;99.90
2929;DHT22;1474;51.460;7.150;2023-02-27T08:08:18;0.40;99.90
2929;DHT22;1474;51.460;7.150;2023-02-27T08:10:43;0.50;99.90
2929;DHT22;1474;51.460;7.150;2023-02-27T08:13:09;0.70;99.90
2929;DHT22;1474;51.460;7.150;2023-02-27T08:15:34;0.80;99.90
2929;DHT22;1474;51.460;7.150;2023-02-27T08:18:00;0.90;99.90
2929;DHT22;1474;51.460;7.150;2023-02-27T08:20:26;1.00;99.90
2929;DHT22;1474;51.460;7.150;2023-02-27T08:22:52;1.30;99.90
2929;DHT22;1474;51.460;7.150;2023-02-27T08:25:17;1.30;99.90
2929;DHT22;1474;51.460;7.150;2023-02-27T08:27:43;1.50;99.90
2929;DHT22;1474;51.460;7.150;2023-02-27T08:30:10;1.60;99.90
2929;DHT22;1474;51.460;7.150;2023-02-27T08:32:36;1.80;99.90
2929;DHT22;1474;51.460;7.150;2023-02-27T08:35:03;1.90;99.90
2929;DHT22;1474;51.460;7.150;2023-02-27T08:37:29;2.00;99.90
2929;DHT22;1474;51.460;7.150;2023-02-27T08:39:55;2.10;99.90
2929;DHT22;1474;51.460;7.150;2023-02-27T08:42:21;2.10;99.90
2929;DHT22;1474;51.460;7.150;2023-02-27T08:44:46;2.10;99.90
2929;DHT22;1474;51.460;7.150;2023-02-27T08:47:15;2.10;99.90
2929;DHT22;1474;51.460;7.150;2023-02-27T08:49:40;2.30;99.90
2929;DHT22;1474;51.460;7.150;2023-02-27T08:52:06;2.40;99.90
2929;DHT22;1474;51.460;7.150;2023-02-27T08:54:34;2.50;99.90
2929;DHT22;1474;51.460;7.150;2023-02-27T08:57:02;2.60;99.90
2929;DHT22;1474;51.460;7.150;2023-02-27T08:59:28;2.80;99.90
2929;DHT22;1474;51.460;7.150;2023-02-27T09:01:54;3.10;99.90
2929;DHT22;1474;51.460;7.150;2023-02-27T09:04:20;3.20;99.90
2929;DHT22;1474;51.460;7.150;2023-02-27T09:06:46;3.30;99.90
2929;DHT22;1474;51.460;7.150;2023-02-27T09:09:12;3.30;99.90
2929;DHT22;1474;51.460;7.150;2023-02-27T09:11:38;3.30;99.90
2929;DHT22;1474;51.460;7.150;2023-02-27T09:14:04;3.50;99.90
2929;DHT22;1474;51.460;7.150;2023-02-27T09:16:30;3.50;99.90
2929;DHT22;1474;51.460;7.150;2023-02-27T09:18:55;3.50;99.90
2929;DHT22;1474;51.460;7.150;2023-02-27T09:21:21;3.60;99.90
2929;DHT22;1474;51.460;7.150;2023-02-27T09:23:48;3.60;99.90
2929;DHT22;1474;51.460;7.150;2023-02-27T09:26:13;3.60;99.90
2929;DHT22;1474;51.460;7.150;2023-02-27T09:28:40;3.80;99.90
2929;DHT22;1474;51.460;7.150;2023-02-27T09:31:06;3.70;99.90
2929;DHT22;1474;51.460;7.150;2023-02-27T09:33:33;3.80;99.90
2929;DHT22;1474;51.460;7.150;2023-02-27T09:35:59;3.90;99.90
2929;DHT22;1474;51.460;7.150;2023-02-27T09:38:25;3.90;99.90
2929;DHT22;1474;51.460;7.150;2023-02-27T09:40:52;4.00;99.90
2929;DHT22;1474;51.460;7.150;2023-02-27T09:45:58;4.10;99.90
2929;DHT22;1474;51.460;7.150;2023-02-27T09:48:33;4.20;99.90
2929;DHT22;1474;51.460;7.150;2023-02-27T09:51:01;4.30;99.90
2929;DHT22;1474;51.460;7.150;2023-02-27T09:53:35;4.30;99.90
2929;DHT22;1474;51.460;7.150;2023-02-27T09:56:15;4.40;99.90
2929;DHT22;1474;51.460;7.150;2023-02-27T09:59:04;4.30;99.90
2929;DHT22;1474;51.460;7.150;2023-02-27T10:01:49;4.20;99.90
2929;DHT22;1474;51.460;7.150;2023-02-27T10:04:30;4.10;99.90
2929;DHT22;1474;51.460;7.150;2023-02-27T10:07:13;4.30;99.90
2929;DHT22;1474;51.460;7.150;2023-02-27T10:15:21;4.60;99.90
2929;DHT22;1474;51.460;7.150;2023-02-27T10:18:10;4.70;99.90
2929;DHT22;1474;51.460;7.150;2023-02-27T10:20:42;4.90;99.90
2929;DHT22;1474;51.460;7.150;2023-02-27T10:23:13;5.00;99.90
2929;DHT22;1474;51.460;7.150;2023-02-27T10:25:45;4.90;99.90
2929;DHT22;1474;51.460;7.150;2023-02-27T10:28:17;4.90;99.90
2929;DHT22;1474;51.460;7.150;2023-02-27T10:30:47;4.90;99.90
2929;DHT22;1474;51.460;7.150;2023-02-27T10:33:36;5.10;99.90
2929;DHT22;1474;51.460;7.150;2023-02-27T10:36:04;5.30;99.90
2929;DHT22;1474;51.460;7.150;2023-02-27T10:38:42;5.40;99.90
2929;DHT22;1474;51.460;7.150;2023-02-27T10:41:13;5.70;99.90
2929;DHT22;1474;51.460;7.150;2023-02-27T10:43:40;5.80;99.90
2929;DHT22;1474;51.460;7.150;2023-02-27T10:46:13;5.60;99.90
2929;DHT22;1474;51.460;7.150;2023-02-27T10:48:39;5.40;99.90
2929;DHT22;1474;51.460;7.150;2023-02-27T10:51:27;5.40;99.90
2929;DHT22;1474;51.460;7.150;2023-02-27T10:56:39;5.60;99.90
2929;DHT22;1474;51.460;7.150;2023-02-27T10:59:13;5.60;99.90
2929;DHT22;1474;51.460;7.150;2023-02-27T11:04:37;5.50;99.90
2929;DHT22;1474;51.460;7.150;2023-02-27T11:07:13;5.50;99.90
2929;DHT22;1474;51.460;7.150;2023-02-27T11:10:01;5.30;99.90
2929;DHT22;1474;51.460;7.150;2023-02-27T11:12:29;5.10;99.90
2929;DHT22;1474;51.460;7.150;2023-02-27T11:15:21;4.90;99.90
2929;DHT22;1474;51.460;7.150;2023-02-27T11:17:46;4.70;99.90
2929;DHT22;1474;51.460;7.150;2023-02-27T11:23:29;4.70;99.90
2929;DHT22;1474;51.460;7.150;2023-02-27T11:26:23;4.80;99.90
2929;DHT22;1474;51.460;7.150;2023-02-27T11:29:06;4.70;99.90
2929;DHT22;1474;51.460;7.150;2023-02-27T11:31:34;4.70;99.90
2929;DHT22;1474;51.460;7.150;2023-02-27T11:34:01;4.80;99.90
2929;DHT22;1474;51.460;7.150;2023-02-27T11:36:44;5.10;99.90
2929;DHT22;1474;51.460;7.150;2023-02-27T11:41:57;5.70;99.90
2929;DHT22;1474;51.460;7.150;2023-02-27T11:44:27;5.70;99.90
2929;DHT22;1474;51.460;7.150;2023-02-27T11:47:19;5.50;99.90
2929;DHT22;1474;51.460;7.150;2023-02-27T11:50:06;5.20;99.90
2929;DHT22;1474;51.460;7.150;2023-02-27T11:52:46;5.10;99.90
2929;DHT22;1474;51.460;7.150;2023-02-27T11:55:17;5.00;99.90
2929;DHT22;1474;51.460;7.150;2023-02-27T11:57:49;5.00;99.90
2929;DHT22;1474;51.460;7.150;2023-02-27T12:00:20;5.30;99.90
2929;DHT22;1474;51.460;7.150;2023-02-27T12:05:52;5.60;99.90
2929;DHT22;1474;51.460;7.150;2023-02-27T12:08:35;5.80;99.90
2929;DHT22;1474;51.460;7.150;2023-02-27T12:11:19;6.00;99.90
2929;DHT22;1474;51.460;7.150;2023-02-27T12:13:51;6.20;99.90
2929;DHT22;1474;51.460;7.150;2023-02-27T12:16:36;6.20;99.90
2929;DHT22;1474;51.460;7.150;2023-02-27T12:19:20;5.90;99.90
2929;DHT22;1474;51.460;7.150;2023-02-27T12:21:51;5.90;99.90
2929;DHT22;1474;51.460;7.150;2023-02-27T12:24:38;5.90;99.90
2929;DHT22;1474;51.460;7.150;2023-02-27T12:27:37;5.90;99.90
2929;DHT22;1474;51.460;7.150;2023-02-27T12:30:16;6.00;99.90
2929;DHT22;1474;51.460;7.150;2023-02-27T12:32:48;6.10;99.90
2929;DHT22;1474;51.460;7.150;2023-02-27T12:35:23;6.30;99.90
2929;DHT22;1474;51.460;7.150;2023-02-27T12:37:50;6.50;99.90
2929;DHT22;1474;51.460;7.150;2023-02-27T12:40:18;6.50;99.90
2929;DHT22;1474;51.460;7.150;2023-02-27T13:05:07;6.60;99.90
2929;DHT22;1474;51.460;7.150;2023-02-27T13:07:50;6.20;99.90
2929;DHT22;1474;51.460;7.150;2023-02-27T13:10:23;6.20;99.90
2929;DHT22;1474;51.460;7.150;2023-02-27T13:13:21;6.00;99.90
2929;DHT22;1474;51.460;7.150;2023-02-27T13:15:57;6.20;99.90
2929;DHT22;1474;51.460;7.150;2023-02-27T13:21:01;6.60;99.90
2929;DHT22;1474;51.460;7.150;2023-02-27T13:23:38;6.70;99.90
2929;DHT22;1474;51.460;7.150;2023-02-27T13:26:17;6.70;99.90
2929;DHT22;1474;51.460;7.150;2023-02-27T13:28:45;7.00;99.90
2929;DHT22;1474;51.460;7.150;2023-02-27T13:31:24;7.10;99.90
2929;DHT22;1474;51.460;7.150;2023-02-27T13:34:13;6.80;99.90
2929;DHT22;1474;51.460;7.150;2023-02-27T13:36:48;6.50;99.90
2929;DHT22;1474;51.460;7.150;2023-02-27T13:39:49;6.40;99.90
2929;DHT22;1474;51.460;7.150;2023-02-27T13:44:52;6.00;99.90
2929;DHT22;1474;51.460;7.150;2023-02-27T13:47:37;5.90;99.90
2929;DHT22;1474;51.460;7.150;2023-02-27T13:52:50;6.20;99.90
2929;DHT22;1474;51.460;7.150;2023-02-27T13:55:36;6.30;99.90
2929;DHT22;1474;51.460;7.150;2023-02-27T13:58:03;6.20;99.90
2929;DHT22;1474;51.460;7.150;2023-02-27T14:00:32;6.00;99.90
2929;DHT22;1474;51.460;7.150;2023-02-27T14:03:08;5.70;99.90
2929;DHT22;1474;51.460;7.150;2023-02-27T14:05:43;5.60;99.90
2929;DHT22;1474;51.460;7.150;2023-02-27T14:08:17;5.50;99.90
2929;DHT22;1474;51.460;7.150;2023-02-27T14:21:58;6.10;99.90
2929;DHT22;1474;51.460;7.150;2023-02-27T14:24:31;6.00;99.90
2929;DHT22;1474;51.460;7.150;2023-02-27T14:27:02;5.90;99.90
2929;DHT22;1474;51.460;7.150;2023-02-27T14:29:31;6.00;99.90
2929;DHT22;1474;51.460;7.150;2023-02-27T14:32:03;6.10;99.90
2929;DHT22;1474;51.460;7.150;2023-02-27T14:34:31;6.20;99.90
2929;DHT22;1474;51.460;7.150;2023-02-27T14:37:00;6.20;99.90
2929;DHT22;1474;51.460;7.150;2023-02-27T14:39:31;6.30;99.90
2929;DHT22;1474;51.460;7.150;2023-02-27T14:44:41;6.40;99.90
2929;DHT22;1474;51.460;7.150;2023-02-27T14:47:23;6.20;99.90
2929;DHT22;1474;51.460;7.150;2023-02-27T14:49:51;5.90;99.90
2929;DHT22;1474;51.460;7.150;2023-02-27T14:52:28;5.70;99.90
2929;DHT22;1474;51.460;7.150;2023-02-27T14:55:16;5.60;99.90
2929;DHT22;1474;51.460;7.150;2023-02-27T15:00:38;5.80;99.90
2929;DHT22;1474;51.460;7.150;2023-02-27T15:05:42;6.00;99.90
2929;DHT22;1474;51.460;7.150;2023-02-27T15:08:38;6.10;99.90
2929;DHT22;1474;51.460;7.150;2023-02-27T15:11:04;6.20;99.90
2929;DHT22;1474;51.460;7.150;2023-02-27T15:13:34;6.20;99.90
2929;DHT22;1474;51.460;7.150;2023-02-27T15:18:49;6.00;99.90
2929;DHT22;1474;51.460;7.150;2023-02-27T15:21:16;5.90;99.90
2929;DHT22;1474;51.460;7.150;2023-02-27T15:23:42;5.90;99.90
2929;DHT22;1474;51.460;7.150;2023-02-27T15:26:12;5.80;99.90
2929;DHT22;1474;51.460;7.150;2023-02-27T15:28:38;5.80;99.90
2929;DHT22;1474;51.460;7.150;2023-02-27T15:31:07;5.70;99.90
2929;DHT22;1474;51.460;7.150;2023-02-27T15:33:34;5.60;99.90
2929;DHT22;1474;51.460;7.150;2023-02-27T15:36:00;5.40;99.90
2929;DHT22;1474;51.460;7.150;2023-02-27T15:38:32;5.40;99.90
2929;DHT22;1474;51.460;7.150;2023-02-27T15:40:58;5.40;99.90
2929;DHT22;1474;51.460;7.150;2023-02-27T15:43:26;5.40;99.90
2929;DHT22;1474;51.460;7.150;2023-02-27T15:45:53;5.40;99.90
2929;DHT22;1474;51.460;7.150;2023-02-27T15:48:20;5.30;99.90
2929;DHT22;1474;51.460;7.150;2023-02-27T15:50:52;5.30;99.90
2929;DHT22;1474;51.460;7.150;2023-02-27T15:53:23;5.30;99.90
2929;DHT22;1474;51.460;7.150;2023-02-27T15:55:50;5.30;99.90
2929;DHT22;1474;51.460;7.150;2023-02-27T15:58:28;5.30;99.90
2929;DHT22;1474;51.460;7.150;2023-02-27T16:01:01;5.30;99.90
2929;DHT22;1474;51.460;7.150;2023-02-27T16:03:36;5.30;99.90
2929;DHT22;1474;51.460;7.150;2023-02-27T16:06:14;5.30;99.90
2929;DHT22;1474;51.460;7.150;2023-02-27T16:08:45;5.30;99.90
2929;DHT22;1474;51.460;7.150;2023-02-27T16:11:25;5.20;99.90
2929;DHT22;1474;51.460;7.150;2023-02-27T16:13:51;5.20;99.90
2929;DHT22;1474;51.460;7.150;2023-02-27T16:16:22;5.20;99.90
2929;DHT22;1474;51.460;7.150;2023-02-27T16:18:50;5.10;99.90
2929;DHT22;1474;51.460;7.150;2023-02-27T16:21:20;5.10;99.90
2929;DHT22;1474;51.460;7.150;2023-02-27T16:23:46;5.10;99.90
2929;DHT22;1474;51.460;7.150;2023-02-27T16:26:32;5.10;99.90
2929;DHT22;1474;51.460;7.150;2023-02-27T16:29:14;5.00;99.90
2929;DHT22;1474;51.460;7.150;2023-02-27T16:31:51;5.00;99.90
2929;DHT22;1474;51.460;7.150;2023-02-27T16:34:35;5.00;99.90
2929;DHT22;1474;51.460;7.150;2023-02-27T16:37:03;4.90;99.90
2929;DHT22;1474;51.460;7.150;2023-02-27T16:39:30;4.80;99.90
2929;DHT22;1474;51.460;7.150;2023-02-27T16:41:57;4.80;99.90
2929;DHT22;1474;51.460;7.150;2023-02-27T16:44:24;4.80;99.90
2929;DHT22;1474;51.460;7.150;2023-02-27T16:46:51;4.70;99.90
2929;DHT22;1474;51.460;7.150;2023-02-27T16:49:22;4.70;99.90
2929;DHT22;1474;51.460;7.150;2023-02-27T16:51:49;4.70;99.90
2929;DHT22;1474;51.460;7.150;2023-02-27T16:54:14;4.60;99.90
2929;DHT22;1474;51.460;7.150;2023-02-27T16:56:41;4.60;99.90
2929;DHT22;1474;51.460;7.150;2023-02-27T17:01:40;4.50;99.90
2929;DHT22;1474;51.460;7.150;2023-02-27T17:04:06;4.50;99.90
2929;DHT22;1474;51.460;7.150;2023-02-27T17:06:32;4.50;99.90
2929;DHT22;1474;51.460;7.150;2023-02-27T17:08:57;4.50;99.90
2929;DHT22;1474;51.460;7.150;2023-02-27T17:11:23;4.40;99.90
2929;DHT22;1474;51.460;7.150;2023-02-27T17:13:52;4.40;99.90
2929;DHT22;1474;51.460;7.150;2023-02-27T17:16:17;4.30;99.90
2929;DHT22;1474;51.460;7.150;2023-02-27T17:18:43;4.30;99.90
2929;DHT22;1474;51.460;7.150;2023-02-27T17:21:08;4.30;99.90
2929;DHT22;1474;51.460;7.150;2023-02-27T17:23:34;4.20;99.90
2929;DHT22;1474;51.460;7.150;2023-02-27T17:26:00;4.20;99.90
2929;DHT22;1474;51.460;7.150;2023-02-27T17:28:25;4.20;99.90
2929;DHT22;1474;51.460;7.150;2023-02-27T17:30:51;4.10;99.90
2929;DHT22;1474;51.460;7.150;2023-02-27T17:33:17;4.10;99.90
2929;DHT22;1474;51.460;7.150;2023-02-27T17:35:42;4.10;99.90
2929;DHT22;1474;51.460;7.150;2023-02-27T17:38:08;4.10;99.90
2929;DHT22;1474;51.460;7.150;2023-02-27T17:40:37;4.10;99.90
2929;DHT22;1474;51.460;7.150;2023-02-27T17:43:03;4.00;99.90
2929;DHT22;1474;51.460;7.150;2023-02-27T17:45:29;4.00;99.90
2929;DHT22;1474;51.460;7.150;2023-02-27T17:47:55;4.00;99.90
2929;DHT22;1474;51.460;7.150;2023-02-27T17:50:21;4.00;99.90
2929;DHT22;1474;51.460;7.150;2023-02-27T17:52:46;3.90;99.90
2929;DHT22;1474;51.460;7.150;2023-02-27T17:55:12;3.80;99.90
2929;DHT22;1474;51.460;7.150;2023-02-27T17:57:40;3.80;99.90
2929;DHT22;1474;51.460;7.150;2023-02-27T18:00:07;3.80;99.90
2929;DHT22;1474;51.460;7.150;2023-02-27T18:02:34;3.80;99.90
2929;DHT22;1474;51.460;7.150;2023-02-27T18:05:00;3.80;99.90
2929;DHT22;1474;51.460;7.150;2023-02-27T18:07:26;3.70;99.90
2929;DHT22;1474;51.460;7.150;2023-02-27T18:09:52;3.70;99.90
2929;DHT22;1474;51.460;7.150;2023-02-27T18:12:18;3.70;99.90
2929;DHT22;1474;51.460;7.150;2023-02-27T18:14:44;3.70;99.90
2929;DHT22;1474;51.460;7.150;2023-02-27T18:17:09;3.60;99.90
2929;DHT22;1474;51.460;7.150;2023-02-27T18:19:38;3.60;99.90
2929;DHT22;1474;51.460;7.150;2023-02-27T18:22:04;3.50;99.90
2929;DHT22;1474;51.460;7.150;2023-02-27T18:24:30;3.50;99.90
2929;DHT22;1474;51.460;7.150;2023-02-27T18:26:55;3.50;99.90
2929;DHT22;1474;51.460;7.150;2023-02-27T18:29:21;3.40;99.90
2929;DHT22;1474;51.460;7.150;2023-02-27T18:31:47;3.40;99.90
2929;DHT22;1474;51.460;7.150;2023-02-27T18:34:14;3.40;99.90
2929;DHT22;1474;51.460;7.150;2023-02-27T18:36:40;3.30;99.90
2929;DHT22;1474;51.460;7.150;2023-02-27T18:39:07;3.30;99.90
2929;DHT22;1474;51.460;7.150;2023-02-27T18:41:33;3.30;99.90
2929;DHT22;1474;51.460;7.150;2023-02-27T18:44:02;3.30;99.90
2929;DHT22;1474;51.460;7.150;2023-02-27T18:46:29;3.30;99.90
2929;DHT22;1474;51.460;7.150;2023-02-27T18:48:54;3.30;99.90
2929;DHT22;1474;51.460;7.150;2023-02-27T18:51:20;3.20;99.90
2929;DHT22;1474;51.460;7.150;2023-02-27T18:53:48;3.20;99.90
2929;DHT22;1474;51.460;7.150;2023-02-27T18:56:16;3.20;99.90